createdAt,value
2017-09-30T00:02:00.496Z,25.30
2017-09-30T00:04:26.946Z,29.60
2017-09-30T00:06:53.360Z,30.93
2017-09-30T00:09:19.753Z,34.83
2017-09-30T00:11:46.916Z,24.10
2017-09-30T00:14:13.320Z,36.13
2017-09-30T00:16:41.180Z,34.10
2017-09-30T00:19:08.328Z,30.97
2017-09-30T00:21:34.801Z,29.70
2017-09-30T00:24:01.228Z,29.90
2017-09-30T00:26:27.640Z,30.23
2017-09-30T00:28:54.819Z,29.83
2017-09-30T00:31:21.245Z,22.70
2017-09-30T00:33:47.645Z,22.70
2017-09-30T00:36:14.804Z,24.73
2017-09-30T00:38:41.991Z,25.07
2017-09-30T00:41:08.414Z,29.83
2017-09-30T00:43:34.828Z,32.43
2017-09-30T00:46:02.025Z,20.60
2017-09-30T00:48:28.436Z,20.67
2017-09-30T00:50:54.869Z,26.13
2017-09-30T00:53:21.337Z,23.37
2017-09-30T00:55:47.797Z,25.03
2017-09-30T00:58:15.716Z,25.27
2017-09-30T01:00:42.141Z,24.87
2017-09-30T01:03:08.585Z,24.93
2017-09-30T01:05:34.983Z,23.60
2017-09-30T01:08:02.174Z,21.90
2017-09-30T01:10:28.619Z,20.90
2017-09-30T01:12:55.034Z,23.90
2017-09-30T01:15:21.473Z,24.03
2017-09-30T01:17:47.897Z,28.70
2017-09-30T01:20:14.357Z,24.30
2017-09-30T01:22:40.958Z,24.53
2017-09-30T01:25:07.420Z,30.00
2017-09-30T01:27:33.878Z,36.60
2017-09-30T01:30:01.814Z,31.10
2017-09-30T01:32:28.414Z,31.80
2017-09-30T01:34:54.885Z,27.83
2017-09-30T01:37:21.340Z,31.43
2017-09-30T01:39:49.262Z,30.77
2017-09-30T01:42:15.764Z,32.40
2017-09-30T01:44:42.952Z,29.40
2017-09-30T01:47:09.425Z,23.63
2017-09-30T01:49:35.868Z,24.50
2017-09-30T01:52:02.340Z,26.87
2017-09-30T01:54:28.772Z,29.50
2017-09-30T01:56:55.212Z,27.70
2017-09-30T01:59:21.673Z,28.60
2017-09-30T02:01:48.103Z,36.07
2017-09-30T02:04:14.541Z,30.90
2017-09-30T02:06:40.979Z,26.63
2017-09-30T02:09:07.446Z,32.90
2017-09-30T02:11:33.895Z,30.23
2017-09-30T02:14:01.046Z,28.03
2017-09-30T02:16:28.241Z,28.87
2017-09-30T02:18:54.705Z,27.13
2017-09-30T02:21:21.140Z,28.37
2017-09-30T02:23:47.849Z,28.67
2017-09-30T02:26:14.348Z,29.97
2017-09-30T02:28:40.754Z,30.50
2017-09-30T02:31:07.911Z,28.20
2017-09-30T02:33:35.055Z,30.50
2017-09-30T02:36:02.221Z,31.53
2017-09-30T02:38:28.623Z,31.10
2017-09-30T02:40:56.515Z,28.27
2017-09-30T02:43:23.664Z,29.33
2017-09-30T02:45:50.798Z,30.30
2017-09-30T02:48:17.202Z,30.03
2017-09-30T02:50:43.629Z,26.40
2017-09-30T02:53:10.022Z,30.23
2017-09-30T02:55:36.432Z,30.30
2017-09-30T02:58:03.569Z,32.13
2017-09-30T03:00:31.465Z,30.40
2017-09-30T03:02:58.596Z,30.13
2017-09-30T03:05:25.800Z,30.57
2017-09-30T03:07:52.241Z,25.63
2017-09-30T03:10:18.641Z,27.33
2017-09-30T03:12:45.034Z,23.80
2017-09-30T03:15:12.938Z,23.50
2017-09-30T03:17:39.401Z,20.13
2017-09-30T03:20:05.800Z,26.37
2017-09-30T03:22:32.222Z,29.87
2017-09-30T03:24:59.387Z,27.30
2017-09-30T03:27:25.911Z,27.30
2017-09-30T03:29:52.337Z,21.20
2017-09-30T03:32:19.508Z,24.00
2017-09-30T03:34:45.967Z,22.87
2017-09-30T03:37:12.369Z,27.07
2017-09-30T03:39:38.805Z,26.67
2017-09-30T03:42:05.246Z,25.47
2017-09-30T03:44:31.673Z,29.23
2017-09-30T03:46:58.084Z,24.77
2017-09-30T03:49:25.229Z,25.33
2017-09-30T03:51:52.396Z,26.10
2017-09-30T03:54:18.798Z,24.77
2017-09-30T03:56:45.983Z,25.20
2017-09-30T03:59:12.417Z,31.97
2017-09-30T04:01:38.908Z,31.07
2017-09-30T04:04:06.825Z,36.07
2017-09-30T04:06:33.246Z,45.23
2017-09-30T04:08:59.649Z,50.60
2017-09-30T04:11:26.852Z,40.50
2017-09-30T04:13:53.273Z,44.77
2017-09-30T04:16:19.689Z,44.30
2017-09-30T04:18:46.108Z,41.50
2017-09-30T04:21:13.237Z,44.83
2017-09-30T04:23:41.142Z,41.60
2017-09-30T04:26:07.574Z,37.10
2017-09-30T04:28:33.956Z,33.90
2017-09-30T04:31:00.467Z,29.90
2017-09-30T04:33:26.916Z,30.03
2017-09-30T04:35:53.330Z,32.10
2017-09-30T04:38:19.716Z,25.00
2017-09-30T04:40:46.848Z,21.97
2017-09-30T04:43:13.303Z,26.30
2017-09-30T04:45:40.448Z,25.40
2017-09-30T04:48:07.585Z,27.43
2017-09-30T04:50:34.021Z,30.23
2017-09-30T04:53:01.171Z,33.13
2017-09-30T04:55:29.052Z,37.30
2017-09-30T04:57:56.208Z,39.90
2017-09-30T05:00:23.378Z,34.53
2017-09-30T05:02:49.997Z,34.47
2017-09-30T05:05:17.225Z,36.50
2017-09-30T05:07:44.372Z,40.00
2017-09-30T05:10:11.556Z,36.67
2017-09-30T05:12:38.014Z,46.37
2017-09-30T05:15:04.422Z,35.90
2017-09-30T05:17:30.824Z,36.70
2017-09-30T05:19:57.201Z,38.30
2017-09-30T05:22:23.641Z,44.90
2017-09-30T05:24:50.053Z,32.87
2017-09-30T05:27:16.462Z,33.73
2017-09-30T05:29:43.633Z,47.20
2017-09-30T05:32:10.037Z,32.43
2017-09-30T05:34:37.997Z,32.10
2017-09-30T05:37:04.428Z,32.43
2017-09-30T05:39:32.330Z,34.40
2017-09-30T05:41:58.733Z,35.47
2017-09-30T05:44:25.175Z,37.43
2017-09-30T05:46:52.338Z,34.30
2017-09-30T05:49:19.532Z,42.83
2017-09-30T05:51:45.958Z,39.37
2017-09-30T05:54:12.376Z,35.10
2017-09-30T05:56:38.772Z,49.43
2017-09-30T05:59:05.188Z,34.70
2017-09-30T06:01:31.584Z,34.53
2017-09-30T06:03:58.055Z,40.20
2017-09-30T06:06:25.962Z,34.93
2017-09-30T06:08:52.387Z,45.17
2017-09-30T06:11:19.530Z,35.30
2017-09-30T06:13:46.679Z,34.30
2017-09-30T06:16:13.816Z,36.30
2017-09-30T06:18:40.995Z,30.90
2017-09-30T06:21:07.380Z,38.10
2017-09-30T06:23:33.765Z,31.07
2017-09-30T06:26:00.176Z,22.73
2017-09-30T06:28:27.325Z,28.13
2017-09-30T06:30:54.489Z,24.40
2017-09-30T06:33:20.873Z,29.83
2017-09-30T06:35:48.205Z,23.23
2017-09-30T06:38:14.760Z,21.83
2017-09-30T06:40:41.164Z,25.33
2017-09-30T06:43:07.558Z,24.63
2017-09-30T06:45:34.744Z,25.20
2017-09-30T06:48:01.181Z,24.70
2017-09-30T06:50:27.605Z,19.20
2017-09-30T06:52:53.997Z,23.50
2017-09-30T06:55:20.404Z,23.33
2017-09-30T06:57:46.837Z,20.07
2017-09-30T07:00:13.227Z,19.23
2017-09-30T07:02:39.668Z,22.70
2017-09-30T07:05:06.091Z,29.17
2017-09-30T07:07:32.504Z,25.30
2017-09-30T07:09:58.993Z,50.13
2017-09-30T07:12:25.452Z,23.60
2017-09-30T07:14:51.977Z,21.37
2017-09-30T07:17:18.383Z,27.53
2017-09-30T07:19:44.792Z,28.47
2017-09-30T07:22:11.186Z,32.37
2017-09-30T07:24:37.608Z,24.00
2017-09-30T07:27:04.055Z,21.70
2017-09-30T07:29:31.189Z,19.57
2017-09-30T07:31:57.601Z,23.73
2017-09-30T07:34:24.034Z,20.37
2017-09-30T07:36:50.417Z,16.47
2017-09-30T07:39:17.527Z,18.43
2017-09-30T07:41:43.990Z,22.50
2017-09-30T07:44:11.134Z,17.90
2017-09-30T07:46:37.536Z,18.60
2017-09-30T07:49:03.953Z,16.87
2017-09-30T07:51:30.352Z,17.17
2017-09-30T07:53:57.549Z,17.77
2017-09-30T07:56:23.997Z,17.10
2017-09-30T07:58:50.434Z,16.00
2017-09-30T08:01:16.856Z,17.20
2017-09-30T08:03:43.341Z,19.63
2017-09-30T08:06:09.820Z,24.07
2017-09-30T08:08:36.232Z,18.60
2017-09-30T08:11:02.631Z,17.70
2017-09-30T08:13:29.790Z,15.33
2017-09-30T08:15:56.227Z,16.37
2017-09-30T08:18:23.343Z,18.10
2017-09-30T08:20:49.726Z,21.40
2017-09-30T08:23:16.146Z,19.03
2017-09-30T08:25:42.556Z,17.03
2017-09-30T08:28:09.725Z,18.87
2017-09-30T08:30:36.852Z,14.80
2017-09-30T08:33:03.984Z,20.43
2017-09-30T08:35:30.409Z,18.13
2017-09-30T08:37:56.820Z,15.13
2017-09-30T08:40:23.216Z,24.57
2017-09-30T08:42:49.796Z,19.83
2017-09-30T08:45:16.222Z,18.97
2017-09-30T08:47:42.629Z,93.90
2017-09-30T08:50:09.029Z,20.70
2017-09-30T08:52:36.175Z,21.50
2017-09-30T08:55:02.582Z,24.37
2017-09-30T08:57:29.000Z,16.70
2017-09-30T08:59:55.368Z,16.70
2017-09-30T09:02:21.823Z,14.67
2017-09-30T09:04:49.046Z,15.57
2017-09-30T09:07:15.439Z,14.80
2017-09-30T09:09:41.850Z,15.27
2017-09-30T09:12:08.313Z,20.30
2017-09-30T09:14:34.761Z,13.00
2017-09-30T09:17:01.164Z,13.17
2017-09-30T09:19:28.572Z,17.10
2017-09-30T09:21:55.000Z,15.73
2017-09-30T09:24:21.399Z,13.80
2017-09-30T09:26:47.815Z,14.60
2017-09-30T09:29:14.212Z,15.37
2017-09-30T09:31:40.648Z,21.17
2017-09-30T09:34:07.112Z,16.53
2017-09-30T09:36:33.515Z,11.27
2017-09-30T09:39:00.706Z,15.60
2017-09-30T09:41:27.104Z,12.70
2017-09-30T09:43:54.301Z,12.73
2017-09-30T09:46:20.765Z,14.30
2017-09-30T09:48:47.215Z,13.40
2017-09-30T09:51:13.592Z,14.00
2017-09-30T09:53:40.045Z,17.40
2017-09-30T09:56:06.451Z,21.90
2017-09-30T09:58:32.872Z,12.20
2017-09-30T10:00:59.308Z,14.13
2017-09-30T10:03:26.504Z,13.30
2017-09-30T10:05:53.160Z,14.63
2017-09-30T10:08:19.575Z,12.63
2017-09-30T10:10:46.042Z,21.23
2017-09-30T10:13:13.360Z,19.80
2017-09-30T10:15:39.787Z,13.97
2017-09-30T10:18:06.188Z,21.07
2017-09-30T10:20:32.727Z,13.30
2017-09-30T10:22:59.181Z,12.40
2017-09-30T10:25:25.639Z,12.70
2017-09-30T10:27:52.819Z,15.10
2017-09-30T10:30:19.976Z,10.87
2017-09-30T10:32:47.113Z,14.83
2017-09-30T10:35:14.283Z,17.87
2017-09-30T10:37:40.746Z,13.33
2017-09-30T10:40:07.150Z,19.23
2017-09-30T10:42:34.297Z,16.77
2017-09-30T10:45:00.720Z,13.60
2017-09-30T10:47:27.894Z,10.93
2017-09-30T10:49:54.322Z,18.40
2017-09-30T10:52:21.025Z,13.93
2017-09-30T10:54:47.457Z,22.10
2017-09-30T10:57:14.588Z,15.43
2017-09-30T10:59:41.000Z,15.17
2017-09-30T11:02:07.399Z,14.87
2017-09-30T11:04:34.535Z,10.73
2017-09-30T11:07:01.702Z,13.17
2017-09-30T11:09:28.105Z,12.83
2017-09-30T11:11:54.509Z,18.67
2017-09-30T11:14:20.951Z,15.87
2017-09-30T11:16:47.367Z,10.70
2017-09-30T11:19:13.812Z,16.73
2017-09-30T11:21:40.335Z,15.10
2017-09-30T11:24:06.745Z,12.90
2017-09-30T11:26:33.147Z,17.20
2017-09-30T11:29:00.278Z,12.83
2017-09-30T11:31:26.693Z,14.67
2017-09-30T11:33:53.088Z,16.23
2017-09-30T11:36:19.553Z,10.47
2017-09-30T11:38:45.981Z,10.90
2017-09-30T11:41:12.369Z,14.13
2017-09-30T11:43:39.532Z,12.73
2017-09-30T11:46:05.935Z,18.63
2017-09-30T11:48:32.328Z,13.33
2017-09-30T11:50:58.735Z,10.83
2017-09-30T11:53:25.119Z,9.97
2017-09-30T11:55:51.523Z,13.10
2017-09-30T11:58:17.988Z,15.20
2017-09-30T12:00:45.189Z,11.23
2017-09-30T12:03:11.579Z,14.40
2017-09-30T12:05:37.996Z,18.63
2017-09-30T12:08:04.410Z,13.00
2017-09-30T12:10:30.806Z,30.77
2017-09-30T12:12:57.956Z,10.83
2017-09-30T12:15:25.077Z,11.50
2017-09-30T12:17:51.489Z,9.73
2017-09-30T12:20:17.911Z,13.23
2017-09-30T12:22:44.312Z,13.60
2017-09-30T12:25:10.804Z,13.60
2017-09-30T12:27:37.252Z,10.90
2017-09-30T12:30:04.363Z,7.17
2017-09-30T12:32:30.780Z,10.27
2017-09-30T12:34:57.172Z,17.20
2017-09-30T12:37:24.325Z,15.10
2017-09-30T12:39:51.456Z,12.70
2017-09-30T12:42:17.847Z,11.63
2017-09-30T12:44:44.254Z,15.80
2017-09-30T12:47:10.660Z,12.77
2017-09-30T12:49:37.059Z,8.17
2017-09-30T12:52:04.336Z,14.93
2017-09-30T12:54:30.757Z,15.00
2017-09-30T12:56:57.164Z,8.77
2017-09-30T12:59:23.679Z,13.23
2017-09-30T13:01:50.101Z,9.90
2017-09-30T13:04:16.509Z,7.63
2017-09-30T13:06:42.937Z,9.07
2017-09-30T13:09:09.338Z,14.90
2017-09-30T13:11:35.707Z,8.10
2017-09-30T13:14:02.949Z,8.10
2017-09-30T13:16:29.355Z,14.73
2017-09-30T13:18:55.731Z,8.80
2017-09-30T13:21:22.161Z,12.53
2017-09-30T13:23:49.308Z,8.07
2017-09-30T13:26:15.690Z,9.87
2017-09-30T13:28:42.259Z,9.47
2017-09-30T13:31:08.681Z,11.77
2017-09-30T13:33:35.119Z,11.47
2017-09-30T13:36:01.544Z,15.73
2017-09-30T13:38:27.938Z,8.90
2017-09-30T13:40:54.364Z,11.40
2017-09-30T13:43:20.783Z,9.70
2017-09-30T13:45:47.925Z,11.73
2017-09-30T13:48:14.320Z,10.43
2017-09-30T13:50:40.715Z,12.93
2017-09-30T13:53:07.115Z,21.87
2017-09-30T13:55:34.260Z,19.67
2017-09-30T13:58:00.674Z,18.03
2017-09-30T14:00:27.144Z,21.70
2017-09-30T14:02:54.287Z,16.13
2017-09-30T14:05:20.712Z,8.87
2017-09-30T14:07:47.107Z,12.03
2017-09-30T14:10:13.520Z,8.20
2017-09-30T14:12:39.930Z,10.20
2017-09-30T14:15:06.373Z,11.10
2017-09-30T14:17:33.520Z,8.23
2017-09-30T14:20:00.663Z,9.43
2017-09-30T14:22:27.783Z,14.67
2017-09-30T14:24:54.196Z,12.13
2017-09-30T14:27:20.578Z,15.10
2017-09-30T14:29:47.787Z,11.10
2017-09-30T14:32:14.220Z,11.90
2017-09-30T14:34:40.679Z,17.37
2017-09-30T14:37:07.245Z,11.57
2017-09-30T14:39:33.924Z,12.90
2017-09-30T14:42:00.419Z,9.10
2017-09-30T14:44:26.881Z,18.63
2017-09-30T14:46:53.327Z,12.50
2017-09-30T14:49:19.722Z,12.40
2017-09-30T14:51:46.151Z,10.40
2017-09-30T14:54:12.552Z,8.47
2017-09-30T14:56:38.969Z,16.30
2017-09-30T14:59:05.361Z,17.40
2017-09-30T15:01:32.564Z,8.30
2017-09-30T15:03:59.444Z,9.53
2017-09-30T15:06:25.872Z,10.30
2017-09-30T15:08:53.060Z,12.30
2017-09-30T15:11:20.341Z,9.27
2017-09-30T15:13:46.742Z,17.40
2017-09-30T15:16:13.233Z,10.27
2017-09-30T15:18:40.399Z,20.57
2017-09-30T15:21:07.520Z,15.70
2017-09-30T15:23:33.920Z,17.00
2017-09-30T15:26:00.348Z,10.83
2017-09-30T15:28:27.475Z,17.33
2017-09-30T15:30:54.021Z,10.80
2017-09-30T15:33:20.451Z,17.53
2017-09-30T15:35:46.840Z,17.80
2017-09-30T15:38:13.232Z,17.57
2017-09-30T15:40:39.633Z,24.97
2017-09-30T15:43:06.623Z,19.30
2017-09-30T15:45:33.141Z,13.50
2017-09-30T15:47:59.543Z,21.80
2017-09-30T15:50:26.696Z,11.60
2017-09-30T15:52:54.792Z,14.40
2017-09-30T15:55:21.234Z,10.13
2017-09-30T15:57:47.628Z,12.47
2017-09-30T16:00:14.091Z,10.93
2017-09-30T16:02:40.509Z,13.20
2017-09-30T16:05:06.938Z,17.10
2017-09-30T16:07:33.422Z,16.17
2017-09-30T16:09:59.814Z,13.10
2017-09-30T16:12:26.209Z,12.80
2017-09-30T16:14:52.625Z,18.23
2017-09-30T16:17:19.033Z,10.17
2017-09-30T16:19:45.448Z,20.63
2017-09-30T16:22:11.893Z,11.47
2017-09-30T16:24:38.293Z,14.10
2017-09-30T16:27:05.451Z,7.93
2017-09-30T16:29:31.865Z,45.47
2017-09-30T16:31:59.152Z,61.93
2017-09-30T16:34:25.545Z,11.40
2017-09-30T16:36:52.749Z,18.33
2017-09-30T16:39:19.195Z,17.70
2017-09-30T16:41:45.587Z,10.77
2017-09-30T16:44:12.741Z,13.20
2017-09-30T16:46:39.150Z,17.20
2017-09-30T16:49:06.331Z,36.33
2017-09-30T16:51:32.750Z,34.60
2017-09-30T16:53:59.153Z,33.70
2017-09-30T16:56:26.318Z,44.47
2017-09-30T16:58:53.478Z,33.53
2017-09-30T17:01:19.923Z,42.60
2017-09-30T17:03:46.326Z,21.17
2017-09-30T17:06:14.477Z,35.93
2017-09-30T17:08:41.663Z,57.00
2017-09-30T17:11:08.085Z,50.50
2017-09-30T17:13:35.267Z,29.03
2017-09-30T17:16:01.683Z,20.93
2017-09-30T17:18:28.076Z,12.73
2017-09-30T17:20:54.530Z,15.23
2017-09-30T17:23:21.713Z,24.40
2017-09-30T17:25:48.106Z,14.20
2017-09-30T17:28:14.546Z,23.90
2017-09-30T17:30:41.718Z,10.33
2017-09-30T17:33:08.128Z,13.00
2017-09-30T17:35:35.345Z,25.63
2017-09-30T17:38:01.791Z,15.20
2017-09-30T17:40:28.246Z,15.30
2017-09-30T17:42:55.412Z,43.33
2017-09-30T17:45:21.851Z,23.67
2017-09-30T17:47:48.262Z,20.73
2017-09-30T17:50:15.444Z,23.50
2017-09-30T17:52:41.903Z,17.83
2017-09-30T17:55:08.332Z,24.87
2017-09-30T17:57:34.770Z,24.13
2017-09-30T18:00:01.174Z,18.27
2017-09-30T18:02:27.610Z,25.03
2017-09-30T18:04:54.050Z,9.63
2017-09-30T18:07:20.487Z,15.47
2017-09-30T18:09:46.978Z,21.50
2017-09-30T18:12:13.454Z,12.00
2017-09-30T18:14:39.902Z,21.00
2017-09-30T18:17:06.342Z,14.60
2017-09-30T18:19:32.767Z,12.00
2017-09-30T18:21:59.186Z,15.13
2017-09-30T18:24:25.686Z,17.80
2017-09-30T18:26:52.865Z,21.80
2017-09-30T18:29:19.298Z,16.77
2017-09-30T18:31:45.772Z,8.90
2017-09-30T18:34:12.206Z,21.53
2017-09-30T18:36:38.657Z,18.93
2017-09-30T18:39:05.861Z,20.50
2017-09-30T18:41:32.281Z,21.60
2017-09-30T18:43:58.735Z,20.70
2017-09-30T18:46:25.187Z,23.10
2017-09-30T18:48:51.653Z,15.20
2017-09-30T18:51:18.880Z,18.90
2017-09-30T18:53:45.285Z,23.30
2017-09-30T18:56:11.712Z,24.80
2017-09-30T18:58:39.527Z,44.67
2017-09-30T19:01:05.919Z,21.07
2017-09-30T19:03:32.343Z,20.13
2017-09-30T19:05:58.742Z,14.70
2017-09-30T19:08:26.178Z,16.30
2017-09-30T19:10:52.645Z,16.00
2017-09-30T19:13:19.041Z,17.97
2017-09-30T19:15:45.441Z,15.17
2017-09-30T19:18:11.840Z,19.90
2017-09-30T19:20:38.281Z,14.07
2017-09-30T19:23:05.426Z,12.20
2017-09-30T19:25:32.125Z,15.83
2017-09-30T19:27:58.557Z,12.70
2017-09-30T19:30:25.956Z,18.03
2017-09-30T19:32:53.101Z,14.63
2017-09-30T19:35:20.245Z,13.13
2017-09-30T19:37:47.361Z,13.63
2017-09-30T19:40:13.796Z,12.30
2017-09-30T19:42:40.223Z,11.23
2017-09-30T19:45:06.642Z,10.63
2017-09-30T19:47:33.094Z,14.10
2017-09-30T19:49:59.506Z,17.50
2017-09-30T19:52:25.917Z,13.10
2017-09-30T19:54:52.350Z,10.23
2017-09-30T19:57:18.766Z,13.03
2017-09-30T19:59:45.184Z,13.00
2017-09-30T20:02:12.369Z,20.20
2017-09-30T20:04:38.777Z,16.50
2017-09-30T20:07:05.237Z,16.13
2017-09-30T20:09:31.646Z,14.80
2017-09-30T20:11:58.086Z,17.00
2017-09-30T20:14:24.511Z,15.93
2017-09-30T20:16:50.915Z,19.50
2017-09-30T20:19:19.529Z,20.77
2017-09-30T20:21:45.922Z,15.90
2017-09-30T20:24:12.354Z,13.50
2017-09-30T20:26:38.761Z,18.70
2017-09-30T20:29:05.165Z,11.40
2017-09-30T20:31:31.574Z,12.53
2017-09-30T20:33:58.703Z,11.70
2017-09-30T20:36:25.114Z,14.70
2017-09-30T20:38:51.529Z,13.00
2017-09-30T20:41:17.931Z,11.50
2017-09-30T20:43:44.366Z,16.10
2017-09-30T20:46:10.828Z,16.70
2017-09-30T20:48:37.240Z,19.90
2017-09-30T20:51:03.664Z,19.20
2017-09-30T20:53:30.036Z,21.40
2017-09-30T20:55:56.487Z,12.77
2017-09-30T20:58:22.886Z,13.57
2017-09-30T21:00:49.308Z,16.47
2017-09-30T21:03:15.728Z,22.10
2017-09-30T21:05:42.128Z,19.43
2017-09-30T21:08:08.525Z,13.23
2017-09-30T21:10:34.954Z,17.47
2017-09-30T21:13:01.347Z,13.97
2017-09-30T21:15:28.553Z,12.30
2017-09-30T21:17:54.970Z,15.60
2017-09-30T21:20:21.402Z,17.00
2017-09-30T21:22:47.819Z,16.20
2017-09-30T21:25:14.300Z,18.43
2017-09-30T21:27:42.173Z,11.53
2017-09-30T21:30:08.563Z,13.97
2017-09-30T21:32:34.936Z,23.30
2017-09-30T21:35:01.350Z,15.97
2017-09-30T21:37:27.777Z,13.00
2017-09-30T21:39:54.206Z,15.30
2017-09-30T21:42:20.655Z,15.97
2017-09-30T21:44:47.058Z,17.30
2017-09-30T21:47:13.486Z,18.73
2017-09-30T21:49:39.944Z,19.17
2017-09-30T21:52:06.390Z,16.97
2017-09-30T21:54:34.258Z,14.10
2017-09-30T21:57:00.664Z,13.73
2017-09-30T21:59:27.072Z,18.03
2017-09-30T22:01:53.497Z,18.33
2017-09-30T22:04:19.899Z,15.70
2017-09-30T22:06:46.295Z,13.90
2017-09-30T22:09:12.724Z,18.47
2017-09-30T22:11:39.142Z,19.03
2017-09-30T22:14:05.548Z,21.83
2017-09-30T22:16:32.686Z,16.53
2017-09-30T22:18:59.087Z,20.67
2017-09-30T22:21:25.509Z,20.80
2017-09-30T22:23:51.936Z,29.00
2017-09-30T22:26:18.439Z,18.90
2017-09-30T22:28:44.829Z,18.73
2017-09-30T22:31:12.738Z,18.60
2017-09-30T22:33:39.950Z,26.13
2017-09-30T22:36:06.353Z,18.30
2017-09-30T22:38:32.758Z,16.40
2017-09-30T22:40:59.153Z,20.73
2017-09-30T22:43:25.559Z,16.60
2017-09-30T22:45:51.961Z,18.30
2017-09-30T22:48:18.385Z,18.80
2017-09-30T22:50:44.787Z,21.43
2017-09-30T22:53:11.215Z,19.00
2017-09-30T22:55:37.678Z,18.77
2017-09-30T22:58:04.831Z,20.90
2017-09-30T23:00:31.988Z,23.20
2017-09-30T23:02:58.389Z,20.40
2017-09-30T23:05:24.790Z,21.67
2017-09-30T23:07:51.166Z,17.20
2017-09-30T23:10:18.304Z,18.67
2017-09-30T23:12:45.440Z,20.83
2017-09-30T23:15:12.167Z,19.97
2017-09-30T23:17:38.561Z,19.03
2017-09-30T23:20:04.984Z,17.73
2017-09-30T23:22:31.402Z,22.03
2017-09-30T23:24:58.570Z,16.10
2017-09-30T23:27:24.967Z,23.17
2017-09-30T23:29:52.863Z,15.73
2017-09-30T23:32:19.981Z,16.30
2017-09-30T23:34:46.388Z,19.10
2017-09-30T23:37:12.822Z,22.37
2017-09-30T23:39:39.221Z,22.60
2017-09-30T23:42:05.651Z,22.43
2017-09-30T23:44:32.046Z,21.07
2017-09-30T23:46:58.449Z,22.47
2017-09-30T23:49:24.840Z,18.03
2017-09-30T23:51:51.233Z,17.63
2017-09-30T23:54:17.644Z,19.47
2017-09-30T23:56:44.046Z,17.87
2017-09-30T23:59:10.488Z,22.07
